createdAt,value
2023-11-24T01:01:54.708Z,62298.25
2023-11-24T05:38:52.027Z,62277.84
2023-11-24T05:42:21.593Z,62302.44
2023-11-24T06:31:42.307Z,62217.59
2023-11-24T06:34:10.975Z,62235.97
2023-11-24T06:36:38.580Z,62250.94
2023-11-24T06:39:10.878Z,62244.53
2023-11-24T06:41:38.731Z,62261.31
2023-11-24T06:44:06.360Z,62279.38
2023-11-24T06:46:39.586Z,62295.66
2023-11-24T06:49:07.753Z,62268.06
2023-11-24T06:55:43.431Z,62298.00
2023-11-24T06:58:12.108Z,62259.34
2023-11-24T07:01:08.155Z,62276.75
2023-11-24T07:03:35.881Z,62297.75
2023-11-24T07:06:06.329Z,62312.38
2023-11-24T07:08:36.676Z,62270.53
2023-11-24T07:11:05.692Z,62341.94
2023-11-24T07:13:33.081Z,62367.38
2023-11-24T07:16:00.633Z,62317.91
2023-11-24T07:18:28.066Z,62318.75
2023-11-24T07:20:55.843Z,62308.16
2023-11-24T07:23:23.243Z,62305.91
2023-11-24T07:25:53.105Z,62345.09
2023-11-24T07:28:20.554Z,62349.63
2023-11-24T07:30:48.099Z,62382.22
2023-11-24T07:33:15.948Z,62344.25
2023-11-24T07:35:44.489Z,62345.03
2023-11-24T07:38:11.867Z,62377.56
2023-11-24T07:40:40.738Z,62371.19
2023-11-24T07:43:10.464Z,62350.22
2023-11-24T07:45:38.059Z,62372.78
2023-11-24T19:56:29.808Z,62506.09
2023-11-24T19:58:59.986Z,62483.28
2023-11-24T20:01:31.622Z,62474.09
2023-11-24T20:03:59.361Z,62456.56
2023-11-24T20:06:31.060Z,62419.09
2023-11-24T20:08:59.918Z,62466.28
2023-11-24T20:15:18.800Z,62489.34
2023-11-24T20:52:54.278Z,62428.78
2023-11-24T21:00:38.478Z,62443.97
2023-11-24T21:01:15.598Z,62384.09
2023-11-24T21:03:48.363Z,62396.75
2023-11-24T21:06:27.726Z,62356.00
2023-11-24T21:09:01.704Z,62359.09
2023-11-24T21:26:01.535Z,62399.22
2023-11-24T21:43:25.636Z,62409.88
2023-11-24T21:45:52.433Z,62376.59
2023-11-24T21:48:30.616Z,62361.53
2023-11-24T21:51:32.811Z,62367.59
2023-11-24T21:54:56.515Z,62381.41
2023-11-24T21:58:06.496Z,62346.34
2023-11-24T22:00:51.600Z,62347.50
2023-11-24T22:03:43.986Z,62346.59
2023-11-24T22:06:31.937Z,62363.69
2023-11-24T22:09:55.210Z,62343.78
2023-11-24T22:13:04.744Z,62333.50
2023-11-24T22:16:35.068Z,62324.38
2023-11-24T22:19:08.783Z,62354.81
2023-11-24T22:21:47.392Z,62340.81
2023-11-24T22:24:58.019Z,62337.56
2023-11-24T22:27:26.365Z,62420.22
2023-11-24T22:30:04.312Z,62395.09
2023-11-24T22:32:48.722Z,62422.66
2023-11-24T22:36:04.814Z,62390.41
2023-11-24T22:39:31.925Z,62364.84
2023-11-24T22:42:32.370Z,62388.84
2023-11-24T23:45:06.499Z,62435.16
2023-11-24T23:46:36.005Z,62423.31
2023-11-24T23:46:49.588Z,62430.47
2023-11-24T23:52:36.777Z,62433.22
2023-11-24T23:55:09.632Z,62376.59
2023-11-24T23:57:38.794Z,62461.66
